sensor_id;sensor_type;location;lat;lon;timestamp;temperature;humidity
33739;DHT22;20063;51.730;11.110;2023-07-13T00:00:46;17.30;99.90
33739;DHT22;20063;51.730;11.110;2023-07-13T00:03:12;17.30;99.90
33739;DHT22;20063;51.730;11.110;2023-07-13T00:05:40;17.30;99.90
33739;DHT22;20063;51.730;11.110;2023-07-13T00:08:07;17.20;99.90
33739;DHT22;20063;51.730;11.110;2023-07-13T00:10:33;17.20;99.90
33739;DHT22;20063;51.730;11.110;2023-07-13T00:12:59;17.20;99.90
33739;DHT22;20063;51.730;11.110;2023-07-13T00:15:26;17.20;99.90
33739;DHT22;20063;51.730;11.110;2023-07-13T00:17:54;17.20;99.90
33739;DHT22;20063;51.730;11.110;2023-07-13T00:20:21;17.20;99.90
33739;DHT22;20063;51.730;11.110;2023-07-13T00:22:48;17.10;99.90
33739;DHT22;20063;51.730;11.110;2023-07-13T00:25:15;17.10;99.90
33739;DHT22;20063;51.730;11.110;2023-07-13T00:27:44;17.00;99.90
33739;DHT22;20063;51.730;11.110;2023-07-13T00:30:11;17.00;99.90
33739;DHT22;20063;51.730;11.110;2023-07-13T00:32:37;17.00;99.90
33739;DHT22;20063;51.730;11.110;2023-07-13T00:35:03;17.00;99.90
33739;DHT22;20063;51.730;11.110;2023-07-13T00:37:31;17.00;99.90
33739;DHT22;20063;51.730;11.110;2023-07-13T00:39:57;16.90;99.90
33739;DHT22;20063;51.730;11.110;2023-07-13T00:42:23;16.90;99.90
33739;DHT22;20063;51.730;11.110;2023-07-13T00:47:40;16.90;99.90
33739;DHT22;20063;51.730;11.110;2023-07-13T00:50:08;16.70;99.90
33739;DHT22;20063;51.730;11.110;2023-07-13T00:52:38;16.70;99.90
33739;DHT22;20063;51.730;11.110;2023-07-13T00:55:09;16.70;99.90
33739;DHT22;20063;51.730;11.110;2023-07-13T00:57:35;16.70;99.90
33739;DHT22;20063;51.730;11.110;2023-07-13T01:00:05;16.60;99.90
33739;DHT22;20063;51.730;11.110;2023-07-13T01:02:35;16.70;99.90
33739;DHT22;20063;51.730;11.110;2023-07-13T01:05:04;16.60;99.90
33739;DHT22;20063;51.730;11.110;2023-07-13T01:07:33;16.60;99.90
33739;DHT22;20063;51.730;11.110;2023-07-13T01:09:59;16.60;99.90
33739;DHT22;20063;51.730;11.110;2023-07-13T01:12:25;16.60;99.90
33739;DHT22;20063;51.730;11.110;2023-07-13T01:15:00;16.60;99.90
33739;DHT22;20063;51.730;11.110;2023-07-13T01:17:27;16.60;99.90
33739;DHT22;20063;51.730;11.110;2023-07-13T01:19:52;16.60;99.90
33739;DHT22;20063;51.730;11.110;2023-07-13T01:22:19;16.60;99.90
33739;DHT22;20063;51.730;11.110;2023-07-13T01:24:46;16.50;99.90
33739;DHT22;20063;51.730;11.110;2023-07-13T01:27:14;16.60;99.90
33739;DHT22;20063;51.730;11.110;2023-07-13T01:29:43;16.50;99.90
33739;DHT22;20063;51.730;11.110;2023-07-13T01:32:11;16.50;99.90
33739;DHT22;20063;51.730;11.110;2023-07-13T01:34:37;16.60;99.90
33739;DHT22;20063;51.730;11.110;2023-07-13T01:37:04;16.50;99.90
33739;DHT22;20063;51.730;11.110;2023-07-13T01:39:30;16.60;99.90
33739;DHT22;20063;51.730;11.110;2023-07-13T01:41:57;16.60;99.90
33739;DHT22;20063;51.730;11.110;2023-07-13T01:44:22;16.60;99.90
33739;DHT22;20063;51.730;11.110;2023-07-13T01:46:48;16.50;99.90
33739;DHT22;20063;51.730;11.110;2023-07-13T01:49:13;16.50;99.90
33739;DHT22;20063;51.730;11.110;2023-07-13T01:51:39;16.50;99.90
33739;DHT22;20063;51.730;11.110;2023-07-13T01:54:05;16.40;99.90
33739;DHT22;20063;51.730;11.110;2023-07-13T01:56:30;16.40;99.90
33739;DHT22;20063;51.730;11.110;2023-07-13T01:58:56;16.30;99.90
33739;DHT22;20063;51.730;11.110;2023-07-13T02:01:22;16.20;99.90
33739;DHT22;20063;51.730;11.110;2023-07-13T02:03:47;16.10;99.90
33739;DHT22;20063;51.730;11.110;2023-07-13T02:06:13;16.10;99.90
33739;DHT22;20063;51.730;11.110;2023-07-13T02:08:41;16.10;99.90
33739;DHT22;20063;51.730;11.110;2023-07-13T02:11:07;16.00;99.90
33739;DHT22;20063;51.730;11.110;2023-07-13T02:13:32;16.00;99.90
33739;DHT22;20063;51.730;11.110;2023-07-13T02:15:58;16.00;99.90
33739;DHT22;20063;51.730;11.110;2023-07-13T02:18:23;16.00;99.90
33739;DHT22;20063;51.730;11.110;2023-07-13T02:20:49;16.00;99.90
33739;DHT22;20063;51.730;11.110;2023-07-13T02:23:14;16.00;99.90
33739;DHT22;20063;51.730;11.110;2023-07-13T02:25:40;15.90;99.90
33739;DHT22;20063;51.730;11.110;2023-07-13T02:28:06;15.90;99.90
33739;DHT22;20063;51.730;11.110;2023-07-13T02:30:34;15.90;99.90
33739;DHT22;20063;51.730;11.110;2023-07-13T02:32:59;15.80;99.90
33739;DHT22;20063;51.730;11.110;2023-07-13T02:35:25;15.80;99.90
33739;DHT22;20063;51.730;11.110;2023-07-13T02:37:50;15.80;99.90
33739;DHT22;20063;51.730;11.110;2023-07-13T02:40:16;15.70;99.90
33739;DHT22;20063;51.730;11.110;2023-07-13T02:42:42;15.80;99.90
33739;DHT22;20063;51.730;11.110;2023-07-13T02:45:08;15.80;99.90
33739;DHT22;20063;51.730;11.110;2023-07-13T02:47:35;15.70;99.90
33739;DHT22;20063;51.730;11.110;2023-07-13T02:50:01;15.70;99.90
33739;DHT22;20063;51.730;11.110;2023-07-13T02:52:27;15.70;99.90
33739;DHT22;20063;51.730;11.110;2023-07-13T02:54:52;15.70;99.90
33739;DHT22;20063;51.730;11.110;2023-07-13T02:57:18;15.70;99.90
33739;DHT22;20063;51.730;11.110;2023-07-13T02:59:43;15.70;99.90
33739;DHT22;20063;51.730;11.110;2023-07-13T03:02:09;15.70;99.90
33739;DHT22;20063;51.730;11.110;2023-07-13T03:04:36;15.70;99.90
33739;DHT22;20063;51.730;11.110;2023-07-13T03:07:03;15.70;99.90
33739;DHT22;20063;51.730;11.110;2023-07-13T03:09:29;15.60;99.90
33739;DHT22;20063;51.730;11.110;2023-07-13T03:11:54;15.60;99.90
33739;DHT22;20063;51.730;11.110;2023-07-13T03:14:21;15.60;99.90
33739;DHT22;20063;51.730;11.110;2023-07-13T03:16:47;15.50;99.90
33739;DHT22;20063;51.730;11.110;2023-07-13T03:19:13;15.50;99.90
33739;DHT22;20063;51.730;11.110;2023-07-13T03:21:38;15.50;99.90
33739;DHT22;20063;51.730;11.110;2023-07-13T03:24:06;15.50;99.90
33739;DHT22;20063;51.730;11.110;2023-07-13T03:26:31;15.40;99.90
33739;DHT22;20063;51.730;11.110;2023-07-13T03:28:57;15.40;99.90
33739;DHT22;20063;51.730;11.110;2023-07-13T03:31:27;15.40;99.90
33739;DHT22;20063;51.730;11.110;2023-07-13T03:33:54;15.40;99.90
33739;DHT22;20063;51.730;11.110;2023-07-13T03:36:26;15.40;99.90
33739;DHT22;20063;51.730;11.110;2023-07-13T03:38:55;15.40;99.90
33739;DHT22;20063;51.730;11.110;2023-07-13T03:41:22;15.40;99.90
33739;DHT22;20063;51.730;11.110;2023-07-13T03:43:48;15.40;99.90
33739;DHT22;20063;51.730;11.110;2023-07-13T03:46:15;15.40;99.90
33739;DHT22;20063;51.730;11.110;2023-07-13T03:48:43;15.50;99.90
33739;DHT22;20063;51.730;11.110;2023-07-13T03:51:10;15.50;99.90
33739;DHT22;20063;51.730;11.110;2023-07-13T03:53:38;15.60;99.90
33739;DHT22;20063;51.730;11.110;2023-07-13T03:56:07;15.60;99.90
33739;DHT22;20063;51.730;11.110;2023-07-13T03:58:38;15.70;99.90
33739;DHT22;20063;51.730;11.110;2023-07-13T04:01:06;15.70;99.90
33739;DHT22;20063;51.730;11.110;2023-07-13T04:03:32;15.70;99.90
33739;DHT22;20063;51.730;11.110;2023-07-13T04:06:02;15.60;99.90
33739;DHT22;20063;51.730;11.110;2023-07-13T04:08:33;15.70;99.90
33739;DHT22;20063;51.730;11.110;2023-07-13T04:10:59;15.60;99.90
33739;DHT22;20063;51.730;11.110;2023-07-13T04:13:25;15.70;99.90
33739;DHT22;20063;51.730;11.110;2023-07-13T04:15:52;15.70;99.90
33739;DHT22;20063;51.730;11.110;2023-07-13T04:18:18;15.90;99.90
33739;DHT22;20063;51.730;11.110;2023-07-13T04:20:45;16.00;99.90
33739;DHT22;20063;51.730;11.110;2023-07-13T04:23:11;16.20;99.90
33739;DHT22;20063;51.730;11.110;2023-07-13T04:25:36;16.40;99.90
33739;DHT22;20063;51.730;11.110;2023-07-13T04:28:03;16.60;99.90
33739;DHT22;20063;51.730;11.110;2023-07-13T04:30:28;16.70;99.90
33739;DHT22;20063;51.730;11.110;2023-07-13T04:32:54;16.80;99.90
33739;DHT22;20063;51.730;11.110;2023-07-13T04:35:20;16.80;99.90
33739;DHT22;20063;51.730;11.110;2023-07-13T04:37:47;16.90;99.90
33739;DHT22;20063;51.730;11.110;2023-07-13T04:40:14;17.00;99.90
33739;DHT22;20063;51.730;11.110;2023-07-13T04:42:39;17.10;99.90
33739;DHT22;20063;51.730;11.110;2023-07-13T04:45:06;17.20;99.90
33739;DHT22;20063;51.730;11.110;2023-07-13T04:47:32;17.20;99.90
33739;DHT22;20063;51.730;11.110;2023-07-13T04:49:58;17.30;99.90
33739;DHT22;20063;51.730;11.110;2023-07-13T04:52:24;17.30;99.90
33739;DHT22;20063;51.730;11.110;2023-07-13T04:54:51;17.40;99.90
33739;DHT22;20063;51.730;11.110;2023-07-13T04:57:16;17.40;99.90
33739;DHT22;20063;51.730;11.110;2023-07-13T04:59:42;17.40;99.90
33739;DHT22;20063;51.730;11.110;2023-07-13T05:02:07;17.40;99.90
33739;DHT22;20063;51.730;11.110;2023-07-13T05:04:33;17.50;99.90
33739;DHT22;20063;51.730;11.110;2023-07-13T05:07:00;17.60;99.90
33739;DHT22;20063;51.730;11.110;2023-07-13T05:09:26;17.60;99.90
33739;DHT22;20063;51.730;11.110;2023-07-13T05:11:52;17.70;99.90
33739;DHT22;20063;51.730;11.110;2023-07-13T05:14:17;17.80;99.90
33739;DHT22;20063;51.730;11.110;2023-07-13T05:16:43;17.80;99.90
33739;DHT22;20063;51.730;11.110;2023-07-13T05:19:09;17.90;99.90
33739;DHT22;20063;51.730;11.110;2023-07-13T05:21:35;17.90;99.90
33739;DHT22;20063;51.730;11.110;2023-07-13T05:24:00;18.00;99.90
33739;DHT22;20063;51.730;11.110;2023-07-13T05:26:26;18.10;99.90
33739;DHT22;20063;51.730;11.110;2023-07-13T05:28:52;18.20;99.90
33739;DHT22;20063;51.730;11.110;2023-07-13T05:31:17;18.30;99.90
33739;DHT22;20063;51.730;11.110;2023-07-13T05:33:43;18.30;99.90
33739;DHT22;20063;51.730;11.110;2023-07-13T05:36:09;18.40;99.90
33739;DHT22;20063;51.730;11.110;2023-07-13T05:38:34;18.40;99.90
33739;DHT22;20063;51.730;11.110;2023-07-13T05:41:00;18.50;99.90
33739;DHT22;20063;51.730;11.110;2023-07-13T05:43:26;18.50;99.90
33739;DHT22;20063;51.730;11.110;2023-07-13T05:45:56;18.50;99.90
33739;DHT22;20063;51.730;11.110;2023-07-13T05:48:22;18.50;99.90
33739;DHT22;20063;51.730;11.110;2023-07-13T05:50:48;18.60;99.90
33739;DHT22;20063;51.730;11.110;2023-07-13T05:53:14;18.60;99.90
33739;DHT22;20063;51.730;11.110;2023-07-13T05:55:44;18.60;99.90
33739;DHT22;20063;51.730;11.110;2023-07-13T05:58:13;18.60;99.90
33739;DHT22;20063;51.730;11.110;2023-07-13T06:00:39;18.60;99.90
33739;DHT22;20063;51.730;11.110;2023-07-13T06:03:05;18.70;99.90
33739;DHT22;20063;51.730;11.110;2023-07-13T06:05:32;18.70;99.90
33739;DHT22;20063;51.730;11.110;2023-07-13T06:07:59;18.70;99.90
33739;DHT22;20063;51.730;11.110;2023-07-13T06:10:24;18.80;99.90
33739;DHT22;20063;51.730;11.110;2023-07-13T06:12:50;18.80;99.90
33739;DHT22;20063;51.730;11.110;2023-07-13T06:15:16;18.80;99.90
33739;DHT22;20063;51.730;11.110;2023-07-13T06:17:41;18.90;99.90
33739;DHT22;20063;51.730;11.110;2023-07-13T06:20:07;18.90;99.90
33739;DHT22;20063;51.730;11.110;2023-07-13T06:22:33;18.90;99.90
33739;DHT22;20063;51.730;11.110;2023-07-13T06:24:58;19.00;99.90
33739;DHT22;20063;51.730;11.110;2023-07-13T06:27:24;19.00;99.90
33739;DHT22;20063;51.730;11.110;2023-07-13T06:29:49;19.00;99.90
33739;DHT22;20063;51.730;11.110;2023-07-13T06:32:15;19.10;99.90
33739;DHT22;20063;51.730;11.110;2023-07-13T06:34:40;19.00;99.90
33739;DHT22;20063;51.730;11.110;2023-07-13T06:37:06;19.10;99.90
33739;DHT22;20063;51.730;11.110;2023-07-13T06:39:32;19.10;99.90
33739;DHT22;20063;51.730;11.110;2023-07-13T06:41:58;19.10;99.90
33739;DHT22;20063;51.730;11.110;2023-07-13T06:44:23;19.10;99.90
33739;DHT22;20063;51.730;11.110;2023-07-13T06:46:49;19.10;99.90
33739;DHT22;20063;51.730;11.110;2023-07-13T06:49:15;19.10;99.90
33739;DHT22;20063;51.730;11.110;2023-07-13T06:51:40;19.20;99.90
33739;DHT22;20063;51.730;11.110;2023-07-13T06:54:06;19.20;99.90
33739;DHT22;20063;51.730;11.110;2023-07-13T06:56:31;19.30;99.90
33739;DHT22;20063;51.730;11.110;2023-07-13T06:58:57;19.30;99.90
33739;DHT22;20063;51.730;11.110;2023-07-13T07:01:22;19.30;99.90
33739;DHT22;20063;51.730;11.110;2023-07-13T07:03:48;19.30;99.90
33739;DHT22;20063;51.730;11.110;2023-07-13T07:06:16;19.40;99.90
33739;DHT22;20063;51.730;11.110;2023-07-13T07:08:42;19.50;99.90
33739;DHT22;20063;51.730;11.110;2023-07-13T07:11:24;19.40;99.90
33739;DHT22;20063;51.730;11.110;2023-07-13T07:13:52;19.50;99.90
33739;DHT22;20063;51.730;11.110;2023-07-13T07:16:19;19.40;99.90
33739;DHT22;20063;51.730;11.110;2023-07-13T07:18:45;19.40;99.90
33739;DHT22;20063;51.730;11.110;2023-07-13T07:21:14;19.50;99.90
33739;DHT22;20063;51.730;11.110;2023-07-13T07:23:41;19.50;99.90
33739;DHT22;20063;51.730;11.110;2023-07-13T07:26:07;19.50;99.90
33739;DHT22;20063;51.730;11.110;2023-07-13T07:28:35;19.50;99.90
33739;DHT22;20063;51.730;11.110;2023-07-13T07:31:01;19.50;99.90
33739;DHT22;20063;51.730;11.110;2023-07-13T07:33:26;19.50;99.90
33739;DHT22;20063;51.730;11.110;2023-07-13T07:35:52;19.60;99.90
33739;DHT22;20063;51.730;11.110;2023-07-13T07:38:18;19.60;99.90
33739;DHT22;20063;51.730;11.110;2023-07-13T07:40:44;19.70;99.90
33739;DHT22;20063;51.730;11.110;2023-07-13T07:43:12;19.70;99.90
33739;DHT22;20063;51.730;11.110;2023-07-13T07:45:39;19.70;99.90
33739;DHT22;20063;51.730;11.110;2023-07-13T07:48:05;19.70;99.90
33739;DHT22;20063;51.730;11.110;2023-07-13T07:50:31;19.70;99.90
33739;DHT22;20063;51.730;11.110;2023-07-13T07:52:57;19.80;99.90
33739;DHT22;20063;51.730;11.110;2023-07-13T07:55:25;19.80;99.90
33739;DHT22;20063;51.730;11.110;2023-07-13T07:57:56;19.80;99.90
33739;DHT22;20063;51.730;11.110;2023-07-13T08:00:22;19.90;99.90
33739;DHT22;20063;51.730;11.110;2023-07-13T08:02:47;19.90;99.90
33739;DHT22;20063;51.730;11.110;2023-07-13T08:05:13;20.10;99.90
33739;DHT22;20063;51.730;11.110;2023-07-13T08:07:39;20.00;99.90
33739;DHT22;20063;51.730;11.110;2023-07-13T08:10:06;20.10;99.90
33739;DHT22;20063;51.730;11.110;2023-07-13T08:12:36;20.10;99.90
33739;DHT22;20063;51.730;11.110;2023-07-13T08:15:03;20.10;99.90
33739;DHT22;20063;51.730;11.110;2023-07-13T08:17:29;20.10;99.90
33739;DHT22;20063;51.730;11.110;2023-07-13T08:19:56;20.10;99.90
33739;DHT22;20063;51.730;11.110;2023-07-13T08:22:21;20.10;99.90
33739;DHT22;20063;51.730;11.110;2023-07-13T08:24:47;20.20;99.90
33739;DHT22;20063;51.730;11.110;2023-07-13T08:27:20;20.10;99.90
33739;DHT22;20063;51.730;11.110;2023-07-13T08:29:49;20.20;99.90
33739;DHT22;20063;51.730;11.110;2023-07-13T08:32:16;20.30;99.90
33739;DHT22;20063;51.730;11.110;2023-07-13T08:34:42;20.40;99.90
33739;DHT22;20063;51.730;11.110;2023-07-13T08:37:08;20.40;99.90
33739;DHT22;20063;51.730;11.110;2023-07-13T08:39:34;20.50;99.90
33739;DHT22;20063;51.730;11.110;2023-07-13T08:45:07;20.60;99.90
33739;DHT22;20063;51.730;11.110;2023-07-13T08:47:32;20.60;99.90
33739;DHT22;20063;51.730;11.110;2023-07-13T08:50:00;20.60;99.90
33739;DHT22;20063;51.730;11.110;2023-07-13T08:52:34;20.50;99.90
33739;DHT22;20063;51.730;11.110;2023-07-13T08:57:45;20.50;99.90
33739;DHT22;20063;51.730;11.110;2023-07-13T09:00:12;20.50;99.90
33739;DHT22;20063;51.730;11.110;2023-07-13T09:05:27;20.70;99.90
33739;DHT22;20063;51.730;11.110;2023-07-13T09:16:24;20.90;99.90
33739;DHT22;20063;51.730;11.110;2023-07-13T09:18:52;20.90;99.90
33739;DHT22;20063;51.730;11.110;2023-07-13T09:21:30;20.90;99.90
33739;DHT22;20063;51.730;11.110;2023-07-13T09:24:00;21.00;99.90
33739;DHT22;20063;51.730;11.110;2023-07-13T09:26:32;21.10;99.90
33739;DHT22;20063;51.730;11.110;2023-07-13T09:29:03;21.20;99.90
33739;DHT22;20063;51.730;11.110;2023-07-13T09:31:38;21.20;99.90
33739;DHT22;20063;51.730;11.110;2023-07-13T09:34:09;21.30;99.90
33739;DHT22;20063;51.730;11.110;2023-07-13T09:36:35;21.30;99.90
33739;DHT22;20063;51.730;11.110;2023-07-13T09:39:15;21.20;99.90
33739;DHT22;20063;51.730;11.110;2023-07-13T09:44:34;21.00;99.90
33739;DHT22;20063;51.730;11.110;2023-07-13T09:47:01;21.00;99.90
33739;DHT22;20063;51.730;11.110;2023-07-13T09:49:35;20.90;99.90
33739;DHT22;20063;51.730;11.110;2023-07-13T09:52:06;20.70;99.90
33739;DHT22;20063;51.730;11.110;2023-07-13T09:54:36;20.70;99.90
33739;DHT22;20063;51.730;11.110;2023-07-13T09:57:08;20.70;99.90
33739;DHT22;20063;51.730;11.110;2023-07-13T09:59:41;20.60;99.90
33739;DHT22;20063;51.730;11.110;2023-07-13T10:04:57;20.70;99.90
33739;DHT22;20063;51.730;11.110;2023-07-13T10:07:24;20.80;99.90
33739;DHT22;20063;51.730;11.110;2023-07-13T10:09:54;20.90;99.90
33739;DHT22;20063;51.730;11.110;2023-07-13T10:12:21;21.10;99.90
33739;DHT22;20063;51.730;11.110;2023-07-13T10:14:56;21.20;99.90
33739;DHT22;20063;51.730;11.110;2023-07-13T10:17:30;21.30;99.90
33739;DHT22;20063;51.730;11.110;2023-07-13T10:20:03;21.20;99.90
33739;DHT22;20063;51.730;11.110;2023-07-13T10:22:37;21.20;99.90
33739;DHT22;20063;51.730;11.110;2023-07-13T10:25:18;21.20;99.90
33739;DHT22;20063;51.730;11.110;2023-07-13T10:27:45;21.30;99.90
33739;DHT22;20063;51.730;11.110;2023-07-13T10:30:24;21.40;99.90
33739;DHT22;20063;51.730;11.110;2023-07-13T10:32:52;21.40;99.90
33739;DHT22;20063;51.730;11.110;2023-07-13T10:35:21;21.60;99.90
33739;DHT22;20063;51.730;11.110;2023-07-13T10:38:02;21.60;99.90
33739;DHT22;20063;51.730;11.110;2023-07-13T10:41:17;21.60;99.10
33739;DHT22;20063;51.730;11.110;2023-07-13T10:43:33;21.60;99.90
33739;DHT22;20063;51.730;11.110;2023-07-13T10:46:02;21.60;99.90
33739;DHT22;20063;51.730;11.110;2023-07-13T10:48:29;21.70;99.90
33739;DHT22;20063;51.730;11.110;2023-07-13T10:50:59;21.80;99.90
33739;DHT22;20063;51.730;11.110;2023-07-13T10:53:35;21.90;99.10
33739;DHT22;20063;51.730;11.110;2023-07-13T10:56:08;21.90;99.90
33739;DHT22;20063;51.730;11.110;2023-07-13T10:58:44;21.90;99.90
33739;DHT22;20063;51.730;11.110;2023-07-13T11:04:02;22.00;99.10
33739;DHT22;20063;51.730;11.110;2023-07-13T11:06:33;22.10;99.90
33739;DHT22;20063;51.730;11.110;2023-07-13T11:09:32;22.20;99.90
33739;DHT22;20063;51.730;11.110;2023-07-13T11:12:00;22.30;96.00
33739;DHT22;20063;51.730;11.110;2023-07-13T11:14:30;22.20;99.90
33739;DHT22;20063;51.730;11.110;2023-07-13T11:16:59;22.20;94.10
33739;DHT22;20063;51.730;11.110;2023-07-13T11:19:44;22.20;95.90
33739;DHT22;20063;51.730;11.110;2023-07-13T11:22:20;22.30;94.20
33739;DHT22;20063;51.730;11.110;2023-07-13T11:24:57;22.30;93.00
33739;DHT22;20063;51.730;11.110;2023-07-13T11:27:39;22.30;92.90
33739;DHT22;20063;51.730;11.110;2023-07-13T11:30:21;22.30;93.30
33739;DHT22;20063;51.730;11.110;2023-07-13T11:32:51;22.20;92.70
33739;DHT22;20063;51.730;11.110;2023-07-13T11:35:26;22.20;93.50
33739;DHT22;20063;51.730;11.110;2023-07-13T11:37:52;22.20;93.00
33739;DHT22;20063;51.730;11.110;2023-07-13T11:40:18;22.20;94.60
33739;DHT22;20063;51.730;11.110;2023-07-13T11:42:44;22.30;91.60
33739;DHT22;20063;51.730;11.110;2023-07-13T11:45:22;22.30;93.00
33739;DHT22;20063;51.730;11.110;2023-07-13T11:47:49;22.50;93.10
33739;DHT22;20063;51.730;11.110;2023-07-13T11:50:21;22.70;93.10
33739;DHT22;20063;51.730;11.110;2023-07-13T11:52:48;22.60;91.80
33739;DHT22;20063;51.730;11.110;2023-07-13T11:55:18;22.50;89.70
33739;DHT22;20063;51.730;11.110;2023-07-13T11:57:50;22.30;87.60
33739;DHT22;20063;51.730;11.110;2023-07-13T12:00:25;22.30;91.20
33739;DHT22;20063;51.730;11.110;2023-07-13T12:02:54;22.40;90.00
33739;DHT22;20063;51.730;11.110;2023-07-13T12:05:21;22.40;90.50
33739;DHT22;20063;51.730;11.110;2023-07-13T12:07:47;22.40;87.30
33739;DHT22;20063;51.730;11.110;2023-07-13T12:10:30;22.30;91.30
33739;DHT22;20063;51.730;11.110;2023-07-13T12:12:59;22.10;91.10
33739;DHT22;20063;51.730;11.110;2023-07-13T12:15:33;22.00;93.50
33739;DHT22;20063;51.730;11.110;2023-07-13T12:18:01;22.10;95.40
33739;DHT22;20063;51.730;11.110;2023-07-13T12:20:35;22.20;97.40
33739;DHT22;20063;51.730;11.110;2023-07-13T12:23:06;22.40;93.60
33739;DHT22;20063;51.730;11.110;2023-07-13T12:25:35;22.50;90.50
33739;DHT22;20063;51.730;11.110;2023-07-13T12:28:20;22.50;93.40
33739;DHT22;20063;51.730;11.110;2023-07-13T12:30:48;22.50;88.20
33739;DHT22;20063;51.730;11.110;2023-07-13T12:33:15;22.40;90.40
33739;DHT22;20063;51.730;11.110;2023-07-13T12:35:51;22.40;94.30
33739;DHT22;20063;51.730;11.110;2023-07-13T12:38:18;22.60;89.60
33739;DHT22;20063;51.730;11.110;2023-07-13T12:40:49;22.70;87.60
33739;DHT22;20063;51.730;11.110;2023-07-13T12:43:16;22.80;91.70
33739;DHT22;20063;51.730;11.110;2023-07-13T12:46:16;23.00;85.80
33739;DHT22;20063;51.730;11.110;2023-07-13T12:48:42;23.20;81.30
33739;DHT22;20063;51.730;11.110;2023-07-13T12:51:12;23.20;80.20
33739;DHT22;20063;51.730;11.110;2023-07-13T12:53:50;23.10;84.60
33739;DHT22;20063;51.730;11.110;2023-07-13T12:56:24;23.00;85.30
33739;DHT22;20063;51.730;11.110;2023-07-13T12:58:56;22.80;80.90
33739;DHT22;20063;51.730;11.110;2023-07-13T13:01:23;22.70;80.90
33739;DHT22;20063;51.730;11.110;2023-07-13T13:03:53;22.60;83.00
33739;DHT22;20063;51.730;11.110;2023-07-13T13:08:50;22.80;87.80
33739;DHT22;20063;51.730;11.110;2023-07-13T13:11:20;23.00;78.90
33739;DHT22;20063;51.730;11.110;2023-07-13T13:13:49;22.90;79.40
33739;DHT22;20063;51.730;11.110;2023-07-13T13:16:47;22.90;78.90
33739;DHT22;20063;51.730;11.110;2023-07-13T13:19:24;22.80;84.90
33739;DHT22;20063;51.730;11.110;2023-07-13T13:21:52;23.10;84.00
33739;DHT22;20063;51.730;11.110;2023-07-13T13:24:25;23.20;78.60
33739;DHT22;20063;51.730;11.110;2023-07-13T13:26:52;23.40;80.20
33739;DHT22;20063;51.730;11.110;2023-07-13T13:29:22;23.60;79.50
33739;DHT22;20063;51.730;11.110;2023-07-13T13:31:50;23.70;77.50
33739;DHT22;20063;51.730;11.110;2023-07-13T13:34:17;23.90;81.20
33739;DHT22;20063;51.730;11.110;2023-07-13T13:36:43;23.80;83.60
33739;DHT22;20063;51.730;11.110;2023-07-13T13:39:24;23.70;82.40
33739;DHT22;20063;51.730;11.110;2023-07-13T13:41:53;23.50;76.60
33739;DHT22;20063;51.730;11.110;2023-07-13T13:44:19;23.30;76.10
33739;DHT22;20063;51.730;11.110;2023-07-13T13:46:50;23.10;77.00
33739;DHT22;20063;51.730;11.110;2023-07-13T13:49:19;23.00;81.60
33739;DHT22;20063;51.730;11.110;2023-07-13T13:51:46;23.00;79.80
33739;DHT22;20063;51.730;11.110;2023-07-13T13:54:13;23.00;85.90
33739;DHT22;20063;51.730;11.110;2023-07-13T13:56:42;23.10;79.60
33739;DHT22;20063;51.730;11.110;2023-07-13T13:59:08;23.10;81.40
33739;DHT22;20063;51.730;11.110;2023-07-13T14:01:34;23.00;77.70
33739;DHT22;20063;51.730;11.110;2023-07-13T14:04:01;22.90;75.50
33739;DHT22;20063;51.730;11.110;2023-07-13T14:06:27;22.80;78.60
33739;DHT22;20063;51.730;11.110;2023-07-13T14:08:53;22.80;79.10
33739;DHT22;20063;51.730;11.110;2023-07-13T14:11:21;22.80;79.70
33739;DHT22;20063;51.730;11.110;2023-07-13T14:14:09;22.80;79.30
33739;DHT22;20063;51.730;11.110;2023-07-13T14:16:37;22.80;79.70
33739;DHT22;20063;51.730;11.110;2023-07-13T14:19:02;22.80;84.60
33739;DHT22;20063;51.730;11.110;2023-07-13T14:21:29;22.80;85.20
33739;DHT22;20063;51.730;11.110;2023-07-13T14:23:55;22.90;85.50
33739;DHT22;20063;51.730;11.110;2023-07-13T14:26:25;22.90;85.80
33739;DHT22;20063;51.730;11.110;2023-07-13T14:28:55;22.80;83.00
33739;DHT22;20063;51.730;11.110;2023-07-13T14:31:25;22.90;84.40
33739;DHT22;20063;51.730;11.110;2023-07-13T14:33:51;22.80;88.80
33739;DHT22;20063;51.730;11.110;2023-07-13T14:36:32;22.80;82.30
33739;DHT22;20063;51.730;11.110;2023-07-13T14:39:00;22.80;83.00
33739;DHT22;20063;51.730;11.110;2023-07-13T14:41:27;22.70;84.70
33739;DHT22;20063;51.730;11.110;2023-07-13T14:43:53;22.70;84.50
33739;DHT22;20063;51.730;11.110;2023-07-13T14:46:29;22.70;77.50
33739;DHT22;20063;51.730;11.110;2023-07-13T14:49:07;22.50;82.00
33739;DHT22;20063;51.730;11.110;2023-07-13T14:51:37;22.50;82.00
33739;DHT22;20063;51.730;11.110;2023-07-13T14:54:04;22.50;81.60
33739;DHT22;20063;51.730;11.110;2023-07-13T14:56:33;22.60;85.50
33739;DHT22;20063;51.730;11.110;2023-07-13T14:58:58;22.70;84.80
33739;DHT22;20063;51.730;11.110;2023-07-13T15:01:24;22.90;84.30
33739;DHT22;20063;51.730;11.110;2023-07-13T15:03:52;23.00;84.90
33739;DHT22;20063;51.730;11.110;2023-07-13T15:06:18;23.10;87.60
33739;DHT22;20063;51.730;11.110;2023-07-13T15:08:45;23.10;84.60
33739;DHT22;20063;51.730;11.110;2023-07-13T15:11:12;23.10;84.10
33739;DHT22;20063;51.730;11.110;2023-07-13T15:13:41;23.00;84.80
33739;DHT22;20063;51.730;11.110;2023-07-13T15:16:23;23.00;90.00
33739;DHT22;20063;51.730;11.110;2023-07-13T15:18:49;22.90;86.70
33739;DHT22;20063;51.730;11.110;2023-07-13T15:21:22;23.00;85.10
33739;DHT22;20063;51.730;11.110;2023-07-13T15:23:49;23.10;82.10
33739;DHT22;20063;51.730;11.110;2023-07-13T15:26:17;23.10;81.50
33739;DHT22;20063;51.730;11.110;2023-07-13T15:28:43;23.10;83.50
33739;DHT22;20063;51.730;11.110;2023-07-13T15:31:22;23.00;86.10
33739;DHT22;20063;51.730;11.110;2023-07-13T15:33:49;23.00;85.80
33739;DHT22;20063;51.730;11.110;2023-07-13T15:36:18;23.00;87.30
33739;DHT22;20063;51.730;11.110;2023-07-13T15:38:44;23.00;87.00
33739;DHT22;20063;51.730;11.110;2023-07-13T15:41:37;22.90;88.60
33739;DHT22;20063;51.730;11.110;2023-07-13T15:44:08;22.90;90.00
33739;DHT22;20063;51.730;11.110;2023-07-13T15:46:38;22.90;89.60
33739;DHT22;20063;51.730;11.110;2023-07-13T15:49:09;22.80;90.00
33739;DHT22;20063;51.730;11.110;2023-07-13T15:51:35;22.80;89.70
33739;DHT22;20063;51.730;11.110;2023-07-13T15:54:03;22.70;90.90